Terminal Aerodrome Forecast
Issued by NWS Corpus Christi, TX

Current Version | Previous Version | Text Only | Print | Product List | Glossary On
Versions: 1 2 3 4 5 6 7 8 9 10 11 12 13 14 15 16 17 18 19 20 21
818
FTUS44 KCRP 251140
TAFCRP
TAF
KCRP 251140Z 2512/2612 18008KT 6SM -DZ BR VCSH SCT007 BKN015 OVC025
     FM251600 17011KT P6SM -RA VCSH SCT015 OVC025
      TEMPO 2518/2522 3SM TSRA OVC020CB
     FM260300 01010KT P6SM OVC012
     FM260700 01008KT 3SM BR OVC009=

USA.gov is the U.S. government's official web portal to all federal, state and local government web resources and services.